MMVA/VSA METAR and TAF weather

Enter ICAO airport designator
Station Type Date Time Source
MMVA METAR 2021/07/24 18:47 UTC NOAA

MMVA 241847Z 07007KT 7SM SCT018 BKN080 BKN200 32/23 A3003 RMK 8/138


Station Type Date Time Source
MMVA Decoded METAR 2021/07/24 18:47 UTC NOAA

Villahermosa , Mexico (MMVA) 18-00N 092-49W
Jul 24, 2021 - 02:47 PM EDT / 2021.07.24 1847 UTC
Wind: from the ENE (070 degrees) at 8 MPH (7 KT):0
Visibility: 7 mile(s):0
Sky conditions: mostly cloudy
Temperature: 89 F (32 C)
Heat index: 96.8 F (36.0 C):1
Dew Point: 73 F (23 C)
Relative Humidity: 59%
Pressure (altimeter): 30.03 in. Hg (1016 hPa)
ob: MMVA 241847Z 07007KT 7SM SCT018 BKN080 BKN200 32/23 A3003 RMK 8/138
cycle: 19

Station Type Date Time Source
MMVA TAF 2021/07/24 18:59 UTC NOAA

TAF MMVA 241653Z 2418/2518 07010KT 6SM HZ SCT015 SCT220 BKN220
BECMG 2420/2421 36015KT
FM250100 36005KT P6SM SCT020CB BKN080 PROB40 2502/2506 VC TS
FM250700 23005KT 6SM HZ SCT020 BKN070
TEMPO 2511/2515 3SM BR HZ BKN020

Example: see airport list